Time;durP1;ratioP1;P1;durP2;ratioP2;P2;SDS_P1;SDS_P2;PMS_P1;PMS_P2;Temp;Humidity;BMP_temperature;BMP_pressure;BME280_temperature;BME280_humidity;BME280_pressure;Samples;Min_cycle;Max_cycle;Signal;HPM_P1;HPM_P2
2022/03/02 00:00:51;;;;;;;4.88;4.47;;;22.40;40.50;;;;;;5084197;27;43441;-62
2022/03/02 00:03:19;;;;;;;4.80;4.40;;;22.40;40.50;;;;;;5084439;27;43457;-62
2022/03/02 00:05:47;;;;;;;5.03;4.63;;;22.40;40.50;;;;;;5084123;28;43791;-63
2022/03/02 00:08:14;;;;;;;4.53;4.13;;;22.40;40.50;;;;;;5083840;27;43998;-62
2022/03/02 00:10:42;;;;;;;4.32;4.03;;;22.40;40.50;;;;;;5083900;27;43529;-62
2022/03/02 00:13:09;;;;;;;5.28;4.78;;;22.40;40.60;;;;;;5083516;27;43582;-62
2022/03/02 00:15:37;;;;;;;4.90;4.50;;;22.30;40.50;;;;;;5083456;27;44869;-62
2022/03/02 00:18:04;;;;;;;4.60;4.20;;;22.30;40.50;;;;;;5079382;28;43679;-62
2022/03/02 00:20:32;;;;;;;4.68;4.28;;;22.30;40.70;;;;;;5098988;27;43547;-63
2022/03/02 00:22:59;;;;;;;4.60;4.30;;;22.30;40.80;;;;;;5082808;28;43463;-63
2022/03/02 00:25:27;;;;;;;4.60;4.22;;;22.30;40.80;;;;;;5083796;27;43783;-62
2022/03/02 00:27:54;;;;;;;4.97;4.50;;;22.30;40.80;;;;;;5083972;27;43648;-62
2022/03/02 00:30:26;;;;;;;4.70;4.30;;;22.30;40.70;;;;;;5082706;27;43538;-63
2022/03/02 00:32:55;;;;;;;5.03;4.63;;;22.20;40.80;;;;;;5083373;27;43514;-62
2022/03/02 00:35:23;;;;;;;4.85;4.45;;;22.20;40.70;;;;;;5083660;27;44057;-62
2022/03/02 00:37:50;;;;;;;4.93;4.53;;;22.20;40.80;;;;;;5083763;27;43692;-63
2022/03/02 00:40:18;;;;;;;4.53;4.13;;;22.20;40.80;;;;;;5083660;27;43419;-62
2022/03/02 00:42:46;;;;;;;4.40;4.00;;;22.20;40.80;;;;;;5079059;28;43465;-62
2022/03/02 00:45:14;;;;;;;4.68;4.28;;;22.20;40.80;;;;;;5082779;28;43840;-64
2022/03/02 00:47:41;;;;;;;5.20;4.80;;;22.20;40.90;;;;;;5082108;28;43407;-64
2022/03/02 00:50:10;;;;;;;4.65;4.25;;;22.10;40.80;;;;;;5083392;28;43415;-63
2022/03/02 00:52:37;;;;;;;4.80;4.40;;;22.20;40.90;;;;;;5083425;28;43450;-62
2022/03/02 00:55:05;;;;;;;4.47;4.07;;;22.10;40.80;;;;;;5083124;27;44718;-63
2022/03/02 00:57:33;;;;;;;5.15;4.65;;;22.10;40.90;;;;;;5083406;28;43420;-64
2022/03/02 01:00:01;;;;;;;4.82;4.43;;;22.10;40.90;;;;;;5081247;28;43550;-63
2022/03/02 01:02:28;;;;;;;4.85;4.40;;;22.10;40.90;;;;;;5083113;28;43647;-62
2022/03/02 01:04:56;;;;;;;4.93;4.53;;;22.10;40.90;;;;;;5083258;27;45006;-62
2022/03/02 01:07:23;;;;;;;4.85;4.45;;;22.00;40.90;;;;;;5082925;27;43581;-63
2022/03/02 01:09:51;;;;;;;4.80;4.40;;;22.00;40.90;;;;;;5081509;28;43517;-62
2022/03/02 01:12:19;;;;;;;5.28;4.78;;;22.00;40.90;;;;;;5082788;27;43539;-62
2022/03/02 01:14:46;;;;;;;4.85;4.45;;;22.00;40.90;;;;;;5082939;27;44679;-63
2022/03/02 01:17:14;;;;;;;4.60;4.20;;;22.00;41.00;;;;;;5080103;27;43480;-62
2022/03/02 01:19:42;;;;;;;4.80;4.40;;;22.00;40.90;;;;;;5081225;28;43459;-62
2022/03/02 01:22:09;;;;;;;5.45;4.95;;;22.00;41.70;;;;;;5081669;27;43651;-63
2022/03/02 01:24:37;;;;;;;5.15;4.65;;;22.00;41.00;;;;;;5082829;28;43805;-62
2022/03/02 01:27:04;;;;;;;5.22;4.78;;;21.90;41.00;;;;;;5082856;27;43695;-62
2022/03/02 01:29:34;;;;;;;5.30;4.80;;;21.90;41.00;;;;;;5083160;27;43484;-62
2022/03/02 01:32:05;;;;;;;5.22;4.72;;;21.90;41.00;;;;;;5082684;27;43473;-62
2022/03/02 01:34:33;;;;;;;5.25;4.80;;;21.90;41.00;;;;;;5081458;28;44938;-63
2022/03/02 01:37:01;;;;;;;5.10;4.70;;;21.80;41.00;;;;;;5079857;27;43460;-62
2022/03/02 01:39:29;;;;;;;5.22;4.80;;;21.90;41.10;;;;;;5083054;27;43952;-63
2022/03/02 01:41:56;;;;;;;5.07;4.68;;;21.80;41.00;;;;;;5082638;28;43474;-62
2022/03/02 01:44:24;;;;;;;5.20;4.70;;;21.80;41.00;;;;;;5082455;28;43806;-63
2022/03/02 01:46:51;;;;;;;5.15;4.60;;;21.80;41.00;;;;;;5082433;27;43444;-63
2022/03/02 01:49:20;;;;;;;5.18;4.75;;;21.80;41.10;;;;;;5082911;28;43420;-62
2022/03/02 01:51:47;;;;;;;5.60;5.10;;;21.80;41.10;;;;;;5072502;28;43487;-63
2022/03/02 01:54:15;;;;;;;4.85;4.45;;;21.80;41.10;;;;;;5082142;27;43795;-62
2022/03/02 01:56:42;;;;;;;5.25;4.75;;;21.80;41.10;;;;;;5084925;27;43489;-63
2022/03/02 01:59:10;;;;;;;5.53;5.03;;;21.70;41.00;;;;;;5086196;27;43438;-63
2022/03/02 02:01:41;;;;;;;4.93;4.40;;;21.70;41.10;;;;;;5086431;27;43555;-63
2022/03/02 02:04:10;;;;;;;4.65;4.25;;;21.70;41.10;;;;;;5085951;28;44778;-62
2022/03/02 02:06:37;;;;;;;5.13;4.40;;;21.70;41.10;;;;;;5084308;28;43460;-62
2022/03/02 02:09:07;;;;;;;5.25;4.75;;;21.70;41.20;;;;;;5085025;28;43434;-63
2022/03/02 02:11:35;;;;;;;5.03;4.50;;;21.70;41.10;;;;;;5085920;27;43410;-63
2022/03/02 02:14:02;;;;;;;4.70;4.30;;;21.70;41.00;;;;;;5085040;28;44723;-64
2022/03/02 02:16:30;;;;;;;5.18;4.75;;;21.70;41.10;;;;;;5086025;27;43410;-62
2022/03/02 02:18:58;;;;;;;5.10;4.70;;;21.70;41.10;;;;;;5085788;27;43478;-62
2022/03/02 02:21:27;;;;;;;4.80;4.40;;;21.70;41.10;;;;;;5085945;28;43504;-62
2022/03/02 02:23:55;;;;;;;5.20;4.70;;;21.70;41.10;;;;;;5085296;27;44698;-63
2022/03/02 02:26:23;;;;;;;5.05;4.53;;;21.60;41.00;;;;;;5085688;28;43698;-63
2022/03/02 02:28:51;;;;;;;4.95;4.45;;;21.60;41.10;;;;;;5085749;28;43431;-62
2022/03/02 02:31:19;;;;;;;4.80;4.40;;;21.60;41.10;;;;;;5085404;27;43482;-62
2022/03/02 02:33:48;;;;;;;5.28;4.78;;;21.60;41.20;;;;;;5085247;27;43960;-64
2022/03/02 02:36:15;;;;;;;4.85;4.35;;;21.60;41.20;;;;;;5085039;28;43415;-61
2022/03/02 02:38:43;;;;;;;4.85;4.43;;;21.50;41.20;;;;;;5084972;28;43549;-62
2022/03/02 02:41:10;;;;;;;5.70;4.85;;;21.50;41.30;;;;;;5085550;28;43503;-63
2022/03/02 02:43:42;;;;;;;4.68;4.20;;;21.50;41.20;;;;;;5079392;28;45951;-64
2022/03/02 02:46:11;;;;;;;4.72;4.32;;;21.50;41.30;;;;;;5081929;28;43445;-62
2022/03/02 02:48:39;;;;;;;5.15;4.75;;;21.50;41.30;;;;;;5084385;28;43433;-63
2022/03/02 02:51:07;;;;;;;5.57;4.95;;;21.50;41.20;;;;;;5085569;27;43440;-62
2022/03/02 02:53:35;;;;;;;4.95;4.55;;;21.50;41.20;;;;;;5084150;27;43888;-63
2022/03/02 02:56:03;;;;;;;4.82;4.25;;;21.50;41.30;;;;;;5064016;28;43731;-62
2022/03/02 02:58:30;;;;;;;5.03;4.53;;;21.50;41.20;;;;;;5084060;28;44035;-62
2022/03/02 03:00:58;;;;;;;5.22;4.72;;;21.50;41.20;;;;;;5085285;27;43452;-62
2022/03/02 03:03:25;;;;;;;5.20;4.70;;;21.40;41.20;;;;;;5083809;28;43997;-62
2022/03/02 03:05:53;;;;;;;4.72;4.32;;;21.40;41.30;;;;;;5081862;28;43701;-62
2022/03/02 03:08:21;;;;;;;5.10;4.60;;;21.40;41.20;;;;;;5082624;27;43477;-63
2022/03/02 03:10:48;;;;;;;5.13;4.50;;;21.30;41.20;;;;;;5085348;27;43440;-62
2022/03/02 03:13:17;;;;;;;5.22;4.72;;;21.30;41.20;;;;;;5084276;27;44791;-62
2022/03/02 03:15:44;;;;;;;4.82;4.43;;;21.30;41.20;;;;;;5082957;28;43443;-63
2022/03/02 03:18:12;;;;;;;5.60;5.10;;;21.30;41.20;;;;;;5083035;28;43449;-62
2022/03/02 03:20:39;;;;;;;5.45;4.95;;;21.30;41.20;;;;;;5085034;27;43498;-62
2022/03/02 03:23:07;;;;;;;5.07;4.57;;;21.30;41.30;;;;;;5083660;27;44707;-63
2022/03/02 03:25:35;;;;;;;5.28;4.78;;;21.30;41.30;;;;;;5082714;27;43450;-62
2022/03/02 03:28:03;;;;;;;4.68;4.20;;;21.20;41.30;;;;;;5084444;28;43486;-62
2022/03/02 03:30:31;;;;;;;4.70;4.30;;;21.20;41.30;;;;;;5084851;28;43598;-63
2022/03/02 03:33:00;;;;;;;5.10;4.60;;;21.20;41.40;;;;;;5084728;27;43805;-63
2022/03/02 03:35:27;;;;;;;5.15;4.70;;;21.20;41.40;;;;;;5084558;27;43524;-64
2022/03/02 03:37:55;;;;;;;4.75;4.30;;;21.10;41.40;;;;;;5085269;27;43484;-63
2022/03/02 03:40:23;;;;;;;5.40;4.90;;;21.10;41.40;;;;;;5078687;28;43465;-62
2022/03/02 03:42:52;;;;;;;5.00;4.60;;;21.10;41.30;;;;;;5083650;27;43806;-62
2022/03/02 03:45:19;;;;;;;5.00;4.60;;;21.10;41.40;;;;;;5083891;27;44064;-62
2022/03/02 03:47:47;;;;;;;4.65;4.25;;;21.10;41.40;;;;;;5084573;28;43407;-62
2022/03/02 03:50:15;;;;;;;4.78;4.38;;;21.10;41.40;;;;;;5084423;27;43615;-63
2022/03/02 03:52:43;;;;;;;4.90;4.40;;;21.10;41.40;;;;;;5080580;28;43809;-63
2022/03/02 03:55:12;;;;;;;5.57;5.07;;;21.10;41.40;;;;;;5083410;27;43495;-63
2022/03/02 03:57:40;;;;;;;5.35;4.85;;;21.10;41.30;;;;;;5084615;27;43453;-63
2022/03/02 04:00:11;;;;;;;4.60;4.20;;;21.10;41.30;;;;;;5084464;27;43451;-63
2022/03/02 04:02:39;;;;;;;5.28;4.88;;;21.10;41.20;;;;;;5082702;28;44149;-63
2022/03/02 04:05:07;;;;;;;4.97;4.53;;;21.10;41.20;;;;;;5083220;28;43787;-63
2022/03/02 04:07:36;;;;;;;4.88;4.13;;;21.10;41.20;;;;;;5083692;27;43435;-63
2022/03/02 04:10:06;;;;;;;4.85;4.45;;;21.10;41.20;;;;;;5082511;27;43405;-62
2022/03/02 04:12:34;;;;;;;5.13;4.63;;;21.00;41.20;;;;;;5099201;27;43631;-63
2022/03/02 04:15:04;;;;;;;5.35;4.95;;;21.00;41.20;;;;;;5082547;28;44396;-62
2022/03/02 04:17:31;;;;;;;4.75;4.35;;;21.00;41.30;;;;;;5083985;27;43504;-63
2022/03/02 04:19:58;;;;;;;4.95;4.45;;;21.00;41.40;;;;;;5082903;27;43451;-63
2022/03/02 04:22:27;;;;;;;5.13;4.65;;;20.90;41.40;;;;;;5082662;27;43789;-62
2022/03/02 04:24:54;;;;;;;4.75;4.25;;;20.90;41.40;;;;;;5077139;28;43469;-62
2022/03/02 04:27:22;;;;;;;5.25;4.75;;;20.80;41.40;;;;;;5078433;28;43494;-62
2022/03/02 04:29:49;;;;;;;4.80;4.30;;;20.90;41.50;;;;;;5082943;28;43607;-63
2022/03/02 04:32:17;;;;;;;5.10;4.60;;;20.90;41.40;;;;;;5082645;27;43812;-63
2022/03/02 04:34:44;;;;;;;4.85;4.45;;;20.90;41.40;;;;;;5077609;28;43679;-62
2022/03/02 04:37:12;;;;;;;4.70;4.30;;;20.90;41.30;;;;;;5082748;28;43457;-63
2022/03/02 04:39:40;;;;;;;5.15;4.65;;;20.90;41.30;;;;;;5084149;27;43513;-64
2022/03/02 04:42:08;;;;;;;5.00;4.60;;;20.90;41.30;;;;;;5082492;28;43801;-62
2022/03/02 04:44:35;;;;;;;5.10;4.60;;;20.90;41.30;;;;;;5078189;28;43429;-63
2022/03/02 04:47:03;;;;;;;4.80;4.40;;;20.90;41.20;;;;;;5082604;27;43500;-63
2022/03/02 04:49:31;;;;;;;5.03;4.63;;;20.90;41.30;;;;;;5083668;28;43522;-63
2022/03/02 04:51:58;;;;;;;5.15;4.65;;;20.90;41.30;;;;;;5081275;28;43795;-62
2022/03/02 04:57:12;;;;;;;5.22;4.72;;;20.80;41.20;;;;;;5081599;28;43535;-63
2022/03/02 04:59:40;;;;;;;4.95;4.55;;;20.80;41.30;;;;;;5083603;27;43504;-61
2022/03/02 05:02:08;;;;;;;5.10;4.60;;;20.80;41.40;;;;;;5079590;27;44217;-62
2022/03/02 05:04:35;;;;;;;5.18;4.68;;;20.80;41.30;;;;;;5082097;28;43521;-62
2022/03/02 05:07:03;;;;;;;5.15;4.65;;;20.80;41.30;;;;;;5081620;27;43457;-63
2022/03/02 05:09:31;;;;;;;4.88;4.43;;;20.80;41.30;;;;;;5082336;27;43657;-63
2022/03/02 05:11:58;;;;;;;4.95;4.55;;;20.70;41.30;;;;;;5082620;27;43795;-63
2022/03/02 05:14:26;;;;;;;4.85;4.45;;;20.70;41.40;;;;;;5082990;27;43503;-63
2022/03/02 05:16:53;;;;;;;4.93;4.53;;;20.70;41.40;;;;;;5079028;28;43532;-62
2022/03/02 05:19:21;;;;;;;4.53;4.13;;;20.70;41.30;;;;;;5081706;28;43527;-63
2022/03/02 05:21:48;;;;;;;4.97;4.57;;;20.70;41.30;;;;;;5080587;28;43979;-63
2022/03/02 05:24:16;;;;;;;4.80;4.30;;;20.70;41.30;;;;;;5081604;27;43429;-63
2022/03/02 05:26:44;;;;;;;5.15;4.68;;;20.60;41.30;;;;;;5083216;27;43475;-63
2022/03/02 05:29:11;;;;;;;4.35;3.95;;;20.70;41.30;;;;;;5083131;27;43492;-62
2022/03/02 05:31:39;;;;;;;4.90;4.40;;;20.70;41.30;;;;;;5083343;28;44360;-63
2022/03/02 05:34:06;;;;;;;5.47;4.97;;;20.60;41.20;;;;;;5080367;27;43696;-63
2022/03/02 05:36:34;;;;;;;5.38;4.47;;;20.60;41.30;;;;;;5081945;28;43545;-64
2022/03/02 05:39:01;;;;;;;5.07;4.68;;;20.60;41.30;;;;;;5086570;27;44041;-63
2022/03/02 05:41:28;;;;;;;5.22;4.72;;;20.60;41.40;;;;;;5085327;28;43564;-63
2022/03/02 05:43:56;;;;;;;5.78;5.28;;;20.50;41.30;;;;;;5085644;27;43624;-63
2022/03/02 05:46:23;;;;;;;5.65;5.15;;;20.50;41.30;;;;;;5086559;27;43414;-63
2022/03/02 05:48:52;;;;;;;6.28;5.68;;;20.50;41.30;;;;;;5086530;27;44080;-63
2022/03/02 05:51:20;;;;;;;6.38;5.50;;;20.40;41.30;;;;;;5085398;28;43780;-63
2022/03/02 05:53:48;;;;;;;6.22;5.65;;;20.40;41.30;;;;;;5085979;27;43836;-63
2022/03/02 05:56:15;;;;;;;5.68;5.18;;;20.40;41.40;;;;;;5085970;27;43502;-63
2022/03/02 05:58:43;;;;;;;6.05;5.50;;;20.40;41.40;;;;;;5085368;28;43477;-63
2022/03/02 06:01:11;;;;;;;6.18;5.60;;;20.40;41.50;;;;;;5085970;27;43823;-62
2022/03/02 06:03:39;;;;;;;6.57;5.22;;;20.30;41.40;;;;;;5077321;28;43496;-62
2022/03/02 06:06:26;;;;;;;5.88;5.35;;;20.30;41.40;;;;;;5083440;28;43465;-63
2022/03/02 06:08:54;;;;;;;6.10;5.50;;;20.30;41.30;;;;;;5084736;28;43474;-63
2022/03/02 06:11:22;;;;;;;5.57;5.07;;;20.30;41.40;;;;;;5085790;27;43841;-63
2022/03/02 06:13:50;;;;;;;5.72;5.22;;;20.30;41.50;;;;;;5085329;27;43924;-63
2022/03/02 06:16:18;;;;;;;5.43;5.03;;;20.30;41.60;;;;;;5083258;27;43521;-63
2022/03/02 06:18:45;;;;;;;7.18;5.30;;;20.30;41.60;;;;;;5085582;27;43614;-63
2022/03/02 06:21:17;;;;;;;5.22;4.72;;;20.30;41.60;;;;;;5086236;28;43853;-64
2022/03/02 06:23:45;;;;;;;5.45;4.95;;;20.20;41.60;;;;;;5084406;27;43404;-63
2022/03/02 06:26:13;;;;;;;5.47;4.97;;;20.20;41.60;;;;;;5084924;28;43510;-63
2022/03/02 06:28:41;;;;;;;5.45;4.95;;;20.20;41.50;;;;;;5085934;27;43657;-62
2022/03/02 06:31:08;;;;;;;5.47;4.90;;;20.20;41.60;;;;;;5085434;27;44340;-64
2022/03/02 06:33:36;;;;;;;5.45;4.95;;;20.20;41.60;;;;;;5084335;28;44057;-63
2022/03/02 06:36:04;;;;;;;5.30;4.80;;;20.20;41.60;;;;;;5085806;27;43511;-63
2022/03/02 06:38:31;;;;;;;5.70;5.20;;;20.20;41.60;;;;;;5083594;28;43474;-62
2022/03/02 06:41:22;;;;;;;5.65;5.05;;;20.20;41.60;;;;;;5085135;27;43808;-64
2022/03/02 06:44:01;;;;;;;5.60;5.10;;;20.30;41.60;;;;;;5081166;28;43723;-63
2022/03/02 06:46:54;;;;;;;5.40;4.90;;;20.20;41.60;;;;;;5084210;28;43390;-63
2022/03/02 06:49:30;;;;;;;5.72;5.20;;;20.20;41.60;;;;;;5084821;27;43467;-63
2022/03/02 06:52:00;;;;;;;5.40;4.90;;;20.20;41.60;;;;;;5083431;28;44747;-63
2022/03/02 06:54:31;;;;;;;5.57;5.07;;;20.20;41.60;;;;;;5083547;27;43495;-64
2022/03/02 06:57:01;;;;;;;6.03;5.43;;;20.30;41.50;;;;;;5085400;27;43416;-62
2022/03/02 06:59:41;;;;;;;6.03;5.43;;;20.20;41.50;;;;;;5084135;28;43520;-64
2022/03/02 07:02:09;;;;;;;5.13;4.72;;;20.30;41.50;;;;;;5082570;28;43580;-63
2022/03/02 07:04:42;;;;;;;5.80;5.07;;;20.30;41.50;;;;;;5083666;27;43962;-63
2022/03/02 07:07:13;;;;;;;5.50;5.00;;;20.30;41.50;;;;;;5081754;27;43429;-63
2022/03/02 07:09:42;;;;;;;5.90;5.30;;;20.30;41.50;;;;;;5081680;28;43519;-63
2022/03/02 07:12:09;;;;;;;5.75;5.25;;;20.20;41.50;;;;;;5076722;27;43770;-62
2022/03/02 07:14:38;;;;;;;6.82;5.32;;;20.20;41.50;;;;;;5082905;27;43495;-61
2022/03/02 07:17:06;;;;;;;5.70;5.20;;;20.20;41.60;;;;;;5083534;27;43505;-62
2022/03/02 07:19:33;;;;;;;5.88;5.28;;;20.30;41.60;;;;;;5086137;27;43530;-62
2022/03/02 07:22:05;;;;;;;5.63;5.13;;;20.30;41.60;;;;;;5078766;27;43823;-62
2022/03/02 07:24:39;;;;;;;5.40;4.90;;;20.30;41.50;;;;;;5081056;27;43419;-62
2022/03/02 07:27:07;;;;;;;6.10;5.60;;;20.30;41.50;;;;;;5079680;27;43967;-62
2022/03/02 07:29:36;;;;;;;5.88;5.22;;;20.20;41.60;;;;;;5083738;27;43474;-62
2022/03/02 07:32:04;;;;;;;6.35;5.70;;;20.30;41.50;;;;;;5082934;27;44056;-63
2022/03/02 07:34:32;;;;;;;5.75;5.25;;;20.30;41.50;;;;;;5080286;27;44162;-62
2022/03/02 07:37:00;;;;;;;5.72;5.18;;;20.30;41.50;;;;;;5083534;27;43417;-62
2022/03/02 07:39:28;;;;;;;6.00;5.40;;;20.30;41.50;;;;;;5081540;27;43879;-63
2022/03/02 07:41:57;;;;;;;6.35;5.35;;;20.40;41.50;;;;;;5080384;27;44673;-63
2022/03/02 07:44:27;;;;;;;6.32;5.30;;;20.40;41.50;;;;;;5078177;27;43927;-63
2022/03/02 07:46:56;;;;;;;;;;;20.40;41.50;;;;;;5074069;27;43566;-63
2022/03/02 07:49:23;;;;;;;6.20;5.60;;;20.40;41.60;;;;;;5080085;27;43485;-63
2022/03/02 07:51:54;;;;;;;6.22;5.60;;;20.40;41.60;;;;;;5082921;27;43791;-62
2022/03/02 07:54:28;;;;;;;5.65;5.15;;;20.40;41.50;;;;;;5081611;27;43497;-62
2022/03/02 07:56:56;;;;;;;6.18;5.60;;;20.40;41.50;;;;;;5075212;27;43514;-63
2022/03/02 07:59:23;;;;;;;5.53;5.03;;;20.40;41.50;;;;;;5083340;27;43474;-63
2022/03/02 08:01:53;;;;;;;5.85;5.35;;;20.40;41.60;;;;;;5078322;27;43573;-62
2022/03/02 08:04:23;;;;;;;5.23;4.73;;;20.40;41.70;;;;;;5080470;27;43621;-61
2022/03/02 08:06:52;;;;;;;6.22;5.63;;;20.40;41.70;;;;;;5083194;27;43430;-62
2022/03/02 08:09:19;;;;;;;6.03;5.38;;;20.50;41.60;;;;;;5083599;27;43460;-62
2022/03/02 08:11:47;;;;;;;5.70;5.20;;;20.50;41.60;;;;;;5082054;27;44132;-63
2022/03/02 08:14:14;;;;;;;5.45;4.95;;;20.50;41.70;;;;;;5082182;27;43651;-63
2022/03/02 08:16:43;;;;;;;5.28;4.80;;;20.50;41.60;;;;;;5083062;27;43377;-62
2022/03/02 08:19:11;;;;;;;5.65;5.10;;;20.50;41.60;;;;;;5082062;27;44303;-62
2022/03/02 08:21:42;;;;;;;5.18;4.68;;;20.50;41.60;;;;;;5080673;27;44973;-62
2022/03/02 08:24:15;;;;;;;6.38;5.28;;;20.50;41.70;;;;;;5076696;27;44051;-62
2022/03/02 08:26:48;;;;;;;4.72;4.25;;;20.50;41.70;;;;;;5080372;27;43455;-63
2022/03/02 08:29:19;;;;;;;5.32;4.82;;;20.50;41.60;;;;;;5079993;27;43468;-62
2022/03/02 08:31:50;;;;;;;5.80;5.07;;;20.50;41.60;;;;;;5081714;27;43794;-62
2022/03/02 08:34:19;;;;;;;5.72;4.63;;;20.50;41.60;;;;;;5082311;27;43544;-63
2022/03/02 08:36:48;;;;;;;6.07;5.35;;;20.60;41.70;;;;;;5082833;27;43503;-62
2022/03/02 08:39:15;;;;;;;5.38;4.80;;;20.60;41.70;;;;;;5082735;27;43626;-62
2022/03/02 08:41:43;;;;;;;5.82;4.72;;;20.60;41.70;;;;;;5082283;27;43524;-63
2022/03/02 08:44:12;;;;;;;7.05;5.63;;;20.60;41.70;;;;;;5079184;27;43457;-63
2022/03/02 08:46:41;;;;;;;6.03;5.15;;;20.60;41.70;;;;;;5083073;27;43821;-62
2022/03/02 08:49:09;;;;;;;6.60;5.53;;;20.60;41.70;;;;;;5081510;27;43559;-61
2022/03/02 08:51:39;;;;;;;10.00;4.90;;;20.70;41.70;;;;;;5082384;27;43898;-62
2022/03/02 08:54:08;;;;;;;8.50;5.72;;;20.70;41.90;;;;;;5082185;27;43535;-62
2022/03/02 08:56:38;;;;;;;7.20;4.93;;;20.70;41.80;;;;;;5082360;27;44067;-62
2022/03/02 08:59:06;;;;;;;8.83;5.00;;;20.70;41.90;;;;;;5082858;27;43610;-62
2022/03/02 09:01:40;;;;;;;9.30;4.93;;;20.70;42.00;;;;;;5081699;27;44674;-62
2022/03/02 09:04:18;;;;;;;7.38;4.82;;;20.70;41.80;;;;;;5081699;27;43447;-62
2022/03/02 09:06:46;;;;;;;6.15;4.70;;;20.70;41.70;;;;;;5082822;27;44098;-62
2022/03/02 09:09:14;;;;;;;6.80;4.78;;;20.80;41.80;;;;;;5082534;27;43458;-62
2022/03/02 09:11:43;;;;;;;5.90;4.57;;;20.80;41.80;;;;;;5093073;27;44308;-62
2022/03/02 09:14:10;;;;;;;7.68;4.35;;;20.80;41.70;;;;;;5081692;27;44041;-62
2022/03/02 09:16:39;;;;;;;7.60;5.40;;;20.90;41.80;;;;;;5082275;27;43453;-62
2022/03/02 09:19:08;;;;;;;12.95;5.93;;;20.90;41.60;;;;;;5081103;27;43533;-62
2022/03/02 09:21:36;;;;;;;10.85;5.75;;;20.90;41.60;;;;;;5082281;27;45015;-63
2022/03/02 09:24:05;;;;;;;9.15;5.78;;;20.90;41.60;;;;;;5076946;27;43979;-62
2022/03/02 09:26:33;;;;;;;10.82;5.60;;;20.90;41.50;;;;;;5080538;27;44198;-62
2022/03/02 09:29:03;;;;;;;9.60;5.47;;;20.90;41.50;;;;;;5080018;27;43770;-62
2022/03/02 09:31:33;;;;;;;8.87;5.87;;;21.00;41.60;;;;;;5075097;27;45394;-62
2022/03/02 09:34:07;;;;;;;11.23;5.70;;;21.00;41.50;;;;;;5080872;27;43465;-62
2022/03/02 09:36:36;;;;;;;7.60;5.78;;;21.00;41.50;;;;;;5081593;27;43484;-62
2022/03/02 09:39:06;;;;;;;8.25;5.72;;;21.00;41.50;;;;;;5074500;27;43494;-63
2022/03/02 09:41:48;;;;;;;11.02;5.65;;;21.00;41.50;;;;;;5079613;27;44035;-63
2022/03/02 09:44:21;;;;;;;6.72;5.57;;;21.10;41.50;;;;;;5080408;27;43685;-62
2022/03/02 09:46:56;;;;;;;7.53;5.40;;;21.10;41.40;;;;;;5081660;27;43531;-62
2022/03/02 09:49:29;;;;;;;9.82;5.20;;;21.10;41.40;;;;;;5077549;27;43482;-62
2022/03/02 09:52:07;;;;;;;9.02;5.38;;;21.10;41.50;;;;;;5079173;27;44667;-62
2022/03/02 09:54:39;;;;;;;7.40;5.28;;;21.10;41.50;;;;;;5077644;27;43645;-62
2022/03/02 09:57:08;;;;;;;6.97;5.18;;;21.20;41.50;;;;;;5081358;27;43496;-63
2022/03/02 09:59:39;;;;;;;6.75;4.75;;;21.20;41.50;;;;;;5081240;27;43524;-62
2022/03/02 10:02:08;;;;;;;8.13;4.93;;;21.20;41.50;;;;;;5078387;27;43804;-62
2022/03/02 10:04:37;;;;;;;5.32;4.78;;;21.20;41.50;;;;;;5085300;27;43355;-62
2022/03/02 10:07:27;;;;;;;7.05;4.60;;;21.20;41.50;;;;;;5080796;27;43515;-62
2022/03/02 10:10:22;;;;;;;6.13;4.90;;;21.30;41.50;;;;;;5080093;27;43502;-63
2022/03/02 10:12:51;;;;;;;7.28;5.40;;;21.30;41.50;;;;;;5074581;27;43862;-62
2022/03/02 10:15:19;;;;;;;5.55;4.90;;;21.30;41.50;;;;;;5080295;27;43520;-62
2022/03/02 10:17:56;;;;;;;5.82;4.65;;;21.40;41.60;;;;;;5078691;27;43499;-62
2022/03/02 10:20:28;;;;;;;6.05;5.25;;;21.40;41.60;;;;;;5084031;27;43526;-62
2022/03/02 10:23:21;;;;;;;6.53;5.45;;;21.40;42.20;;;;;;5081802;27;43796;-62
2022/03/02 10:26:00;;;;;;;5.35;4.85;;;21.40;41.50;;;;;;5080015;27;43952;-62
2022/03/02 10:28:29;;;;;;;5.60;5.05;;;21.40;41.40;;;;;;5084459;27;43479;-62
2022/03/02 10:31:40;;;;;;;5.07;4.60;;;21.50;41.60;;;;;;5083346;27;43509;-62
2022/03/02 10:34:30;;;;;;;5.22;4.40;;;21.50;41.50;;;;;;5082687;27;43809;-62
2022/03/02 10:37:09;;;;;;;5.00;4.28;;;21.50;41.50;;;;;;5083559;27;43933;-62
2022/03/02 10:40:05;;;;;;;4.88;4.40;;;21.60;41.60;;;;;;5083734;27;43509;-62
2022/03/02 10:42:36;;;;;;;5.28;4.78;;;21.60;41.60;;;;;;5083231;27;43518;-62
2022/03/02 10:45:03;;;;;;;;;;;21.60;41.60;;;;;;5082335;27;43613;-62
2022/03/02 10:47:32;;;;;;;5.95;4.55;;;21.60;41.40;;;;;;5083692;27;43581;-62
2022/03/02 10:50:02;;;;;;;5.55;4.95;;;21.70;41.40;;;;;;5075773;27;43493;-62
2022/03/02 10:52:35;;;;;;;5.77;5.10;;;21.70;41.30;;;;;;5082770;27;43553;-62
2022/03/02 10:55:11;;;;;;;5.25;4.75;;;21.70;41.30;;;;;;5082326;27;43813;-62
2022/03/02 10:57:39;;;;;;;5.28;4.78;;;21.80;41.30;;;;;;5090053;27;43537;-65
2022/03/02 11:00:18;;;;;;;6.40;4.85;;;21.80;41.20;;;;;;5083582;27;43477;-62
2022/03/02 11:02:49;;;;;;;5.03;4.53;;;21.90;41.20;;;;;;5078907;27;43467;-62
2022/03/02 11:05:18;;;;;;;5.97;4.88;;;21.90;41.20;;;;;;5080734;27;43755;-64
2022/03/02 11:07:46;;;;;;;5.47;4.97;;;21.90;41.10;;;;;;5086582;27;43487;-63
2022/03/02 11:10:18;;;;;;;5.30;4.80;;;22.00;41.10;;;;;;5081265;27;43550;-62
2022/03/02 11:12:47;;;;;;;5.22;4.70;;;22.00;41.10;;;;;;5080747;27;43596;-62
2022/03/02 11:15:17;;;;;;;5.20;4.70;;;22.00;41.10;;;;;;5079721;27;45147;-62
2022/03/02 11:18:00;;;;;;;5.68;5.18;;;22.10;41.10;;;;;;5082326;27;43467;-62
2022/03/02 11:20:31;;;;;;;6.50;5.70;;;22.10;40.80;;;;;;5081428;27;43466;-62
2022/03/02 11:23:02;;;;;;;6.20;5.60;;;22.10;40.70;;;;;;5083015;27;43391;-62
2022/03/02 11:25:50;;;;;;;5.95;5.35;;;22.20;40.90;;;;;;5078732;27;43810;-62
2022/03/02 11:28:22;;;;;;;6.10;5.50;;;22.20;40.90;;;;;;5081026;27;43976;-61
2022/03/02 11:31:02;;;;;;;6.22;5.63;;;22.30;41.00;;;;;;5074963;27;44020;-62
2022/03/02 11:33:30;;;;;;;6.40;4.90;;;22.30;41.00;;;;;;5082036;27;43581;-62
2022/03/02 11:36:13;;;;;;;5.55;5.05;;;22.40;41.10;;;;;;5082984;27;44658;-62
2022/03/02 11:38:43;;;;;;;6.32;5.40;;;22.40;41.00;;;;;;5082202;27;44020;-61
2022/03/02 11:41:12;;;;;;;5.78;5.00;;;22.40;41.00;;;;;;5079824;27;43490;-62
2022/03/02 11:43:41;;;;;;;5.07;4.60;;;22.50;40.90;;;;;;5081274;27;43608;-62
2022/03/02 11:46:11;;;;;;;5.22;4.75;;;22.50;40.90;;;;;;5082474;27;44197;-61
2022/03/02 11:48:41;;;;;;;6.05;5.13;;;22.60;40.90;;;;;;5082940;27;44096;-63
2022/03/02 11:51:11;;;;;;;5.18;4.50;;;22.60;40.90;;;;;;5082992;27;43479;-62
2022/03/02 11:53:59;;;;;;;5.65;4.72;;;22.60;41.60;;;;;;5080089;27;43560;-62
2022/03/02 11:56:28;;;;;;;5.10;4.60;;;22.70;40.90;;;;;;5078778;27;44373;-62
2022/03/02 11:59:06;;;;;;;4.70;4.30;;;22.70;40.70;;;;;;5082145;27;44090;-61
2022/03/02 12:01:53;;;;;;;4.80;4.32;;;22.70;40.80;;;;;;5076519;27;43430;-62
2022/03/02 12:04:31;;;;;;;5.38;4.70;;;22.80;40.80;;;;;;5080952;27;43647;-62
2022/03/02 12:07:03;;;;;;;4.67;4.27;;;22.80;40.70;;;;;;5078688;27;44984;-63
2022/03/02 12:09:33;;;;;;;4.85;4.38;;;22.90;40.80;;;;;;5084230;27;45245;-62
2022/03/02 12:12:20;;;;;;;4.78;4.30;;;22.90;40.80;;;;;;5062829;28;43514;-63
2022/03/02 12:14:56;;;;;;;4.78;4.30;;;23.00;40.80;;;;;;5081698;27;43672;-62
2022/03/02 12:17:26;;;;;;;5.03;4.55;;;23.00;40.80;;;;;;5079357;27;43619;-63
2022/03/02 12:19:57;;;;;;;4.85;4.45;;;23.00;40.80;;;;;;5082217;27;43430;-60
2022/03/02 12:22:33;;;;;;;5.22;4.72;;;23.10;40.90;;;;;;5080868;27;43918;-62
2022/03/02 12:25:01;;;;;;;4.60;4.20;;;23.10;40.90;;;;;;5079520;27;43569;-62
2022/03/02 12:27:29;;;;;;;5.22;4.82;;;23.10;40.90;;;;;;5076220;27;43796;-62
2022/03/02 12:30:05;;;;;;;5.45;4.95;;;23.10;40.90;;;;;;5082235;27;43430;-61
2022/03/02 12:32:35;;;;;;;5.18;4.68;;;23.20;40.80;;;;;;5081708;27;43529;-61
2022/03/02 12:35:08;;;;;;;4.57;4.18;;;23.20;40.70;;;;;;5080706;27;43523;-62
2022/03/02 12:37:36;;;;;;;5.30;4.80;;;23.20;40.70;;;;;;5081330;27;44704;-62
2022/03/02 12:40:10;;;;;;;5.13;4.63;;;23.20;40.60;;;;;;5080840;27;43633;-62
2022/03/02 12:42:39;;;;;;;5.95;4.75;;;23.30;40.70;;;;;;5081250;27;43488;-62
2022/03/02 12:45:08;;;;;;;5.30;4.80;;;23.30;40.70;;;;;;5081103;27;43620;-62
2022/03/02 12:47:37;;;;;;;5.57;4.82;;;23.30;40.60;;;;;;5081506;27;44059;-62
2022/03/02 12:50:10;;;;;;;6.00;4.63;;;23.40;40.70;;;;;;5081685;27;43512;-62
2022/03/02 12:52:39;;;;;;;5.67;5.17;;;23.40;40.60;;;;;;5058560;27;43602;-62
2022/03/02 12:55:09;;;;;;;4.88;4.45;;;23.40;40.50;;;;;;5080398;27;43505;-63
2022/03/02 12:57:37;;;;;;;5.38;4.88;;;23.40;40.50;;;;;;5080674;27;44210;-62
2022/03/02 13:00:11;;;;;;;5.00;4.50;;;23.40;40.40;;;;;;5081508;27;43454;-61
2022/03/02 13:02:39;;;;;;;4.95;4.55;;;23.50;40.50;;;;;;5088299;27;43502;-61
2022/03/02 13:05:27;;;;;;;4.90;4.50;;;23.50;40.50;;;;;;5081093;27;43656;-62